createdAt,value
2023-02-26T00:01:17.294Z,2.90
2023-02-26T00:04:06.746Z,2.90
2023-02-26T00:06:58.306Z,2.90
2023-02-26T00:09:45.286Z,2.90
2023-02-26T00:12:54.310Z,2.80
2023-02-26T00:15:38.260Z,2.80
2023-02-26T00:18:24.101Z,2.80
2023-02-26T00:21:19.599Z,2.80
2023-02-26T00:24:06.653Z,2.80
2023-02-26T00:26:52.072Z,2.70
2023-02-26T00:29:52.264Z,2.70
2023-02-26T00:32:39.967Z,2.70
2023-02-26T00:35:25.839Z,2.70
2023-02-26T00:38:14.690Z,2.70
2023-02-26T00:41:00.081Z,2.70
2023-02-26T00:43:45.965Z,2.80
2023-02-26T00:47:00.482Z,2.80
2023-02-26T00:50:12.091Z,2.90
2023-02-26T00:53:18.429Z,3.10
2023-02-26T00:56:04.718Z,3.10
2023-02-26T00:58:50.667Z,3.30
2023-02-26T01:01:40.661Z,3.40
2023-02-26T01:04:29.755Z,3.40
2023-02-26T01:07:21.924Z,3.50
2023-02-26T01:10:08.180Z,3.60
2023-02-26T01:12:55.937Z,3.70
2023-02-26T01:15:48.265Z,3.70
2023-02-26T01:18:43.351Z,3.70
2023-02-26T01:21:38.221Z,3.80
2023-02-26T01:24:25.660Z,3.80
2023-02-26T01:27:12.185Z,3.80
2023-02-26T01:29:58.195Z,3.70
2023-02-26T01:33:21.828Z,3.70
2023-02-26T01:36:24.054Z,3.70
2023-02-26T01:39:39.174Z,3.80
2023-02-26T01:42:31.036Z,3.70
2023-02-26T01:45:36.873Z,3.70
2023-02-26T01:48:49.221Z,3.60
2023-02-26T01:51:54.190Z,3.60
2023-02-26T01:54:43.637Z,3.50
2023-02-26T01:57:29.141Z,3.40
2023-02-26T02:00:16.192Z,3.30
2023-02-26T02:03:02.186Z,3.30
2023-02-26T02:06:00.553Z,3.20
2023-02-26T02:08:46.898Z,3.20
2023-02-26T02:11:33.897Z,3.10
2023-02-26T02:14:42.358Z,3.90
2023-02-26T02:18:05.962Z,3.00
2023-02-26T02:21:01.069Z,3.00
2023-02-26T02:23:55.310Z,2.90
2023-02-26T02:26:52.986Z,2.90
2023-02-26T02:30:01.700Z,2.90
2023-02-26T02:33:00.635Z,2.80
2023-02-26T02:35:57.811Z,2.80
2023-02-26T02:38:51.768Z,2.80
2023-02-26T02:41:50.096Z,2.70
2023-02-26T02:44:39.995Z,2.60
2023-02-26T02:47:27.375Z,2.60
2023-02-26T02:50:40.368Z,2.60
2023-02-26T02:53:54.343Z,2.50
2023-02-26T02:56:47.081Z,2.60
2023-02-26T02:59:41.958Z,2.50
2023-02-26T03:02:45.593Z,2.50
2023-02-26T03:05:30.876Z,2.50
2023-02-26T03:08:21.047Z,2.40
2023-02-26T03:11:07.367Z,2.40
2023-02-26T03:13:53.622Z,2.40
2023-02-26T03:17:17.137Z,2.40
2023-02-26T03:20:27.629Z,1.80
2023-02-26T03:23:34.373Z,2.30
2023-02-26T03:26:28.153Z,2.30
2023-02-26T03:29:38.932Z,2.20
2023-02-26T03:32:31.283Z,2.20
2023-02-26T03:35:40.236Z,2.20
2023-02-26T03:38:36.031Z,2.20
2023-02-26T03:41:30.680Z,2.10
2023-02-26T03:44:26.224Z,2.20
2023-02-26T03:47:15.467Z,2.20
2023-02-26T03:50:05.843Z,2.10
2023-02-26T03:53:03.723Z,2.10
2023-02-26T03:56:14.371Z,2.10
2023-02-26T03:59:19.136Z,2.20
2023-02-26T04:02:27.218Z,2.20
2023-02-26T04:05:21.376Z,2.10
2023-02-26T04:08:17.752Z,2.10
2023-02-26T04:11:19.280Z,2.00
2023-02-26T04:14:04.636Z,2.10
2023-02-26T04:16:55.113Z,2.10
2023-02-26T04:19:41.466Z,2.00
2023-02-26T04:22:26.833Z,2.00
2023-02-26T04:25:15.427Z,1.90
2023-02-26T04:28:00.756Z,1.90
2023-02-26T04:30:46.298Z,1.90
2023-02-26T04:33:36.967Z,1.90
2023-02-26T04:36:22.740Z,1.90
2023-02-26T04:39:11.872Z,1.90
2023-02-26T04:41:57.787Z,1.80
2023-02-26T04:44:43.837Z,1.80
2023-02-26T04:47:31.542Z,1.80
2023-02-26T04:50:17.341Z,1.80
2023-02-26T04:53:05.051Z,1.80
2023-02-26T04:55:52.498Z,1.80
2023-02-26T04:58:38.267Z,1.70
2023-02-26T05:01:28.117Z,1.70
2023-02-26T05:04:14.451Z,1.70
2023-02-26T05:07:05.076Z,1.60
2023-02-26T05:09:50.689Z,1.60
2023-02-26T05:12:36.686Z,1.60
2023-02-26T05:15:22.377Z,1.60
2023-02-26T05:18:07.822Z,1.60
2023-02-26T05:20:57.197Z,1.50
2023-02-26T05:23:44.210Z,1.50
2023-02-26T05:26:37.444Z,1.50
2023-02-26T05:29:23.201Z,1.50
2023-02-26T05:32:09.373Z,1.40
2023-02-26T05:34:54.763Z,1.50
2023-02-26T05:37:45.078Z,1.40
2023-02-26T05:40:30.456Z,1.50
2023-02-26T05:43:16.216Z,1.40
2023-02-26T05:46:02.299Z,1.50
2023-02-26T05:48:48.644Z,1.40
2023-02-26T05:51:34.136Z,1.50
2023-02-26T05:54:19.981Z,1.40
2023-02-26T05:57:05.388Z,1.40
2023-02-26T05:59:51.408Z,1.50
2023-02-26T06:02:36.749Z,1.50
2023-02-26T06:05:22.385Z,1.50
2023-02-26T06:08:07.903Z,1.50
2023-02-26T06:10:53.680Z,1.50
2023-02-26T06:13:39.386Z,1.50
2023-02-26T06:16:25.093Z,1.40
2023-02-26T06:19:10.973Z,1.40
2023-02-26T06:21:59.884Z,1.40
2023-02-26T06:24:48.052Z,1.40
2023-02-26T06:27:33.267Z,1.40
2023-02-26T06:30:19.482Z,1.40
2023-02-26T06:33:04.925Z,1.50
2023-02-26T06:35:51.248Z,1.50
2023-02-26T06:38:36.562Z,1.50
2023-02-26T06:41:22.252Z,1.50
2023-02-26T06:44:11.622Z,1.50
2023-02-26T06:46:57.257Z,1.60
2023-02-26T06:49:42.875Z,1.70
2023-02-26T06:52:28.902Z,1.70
2023-02-26T06:55:14.058Z,1.80
2023-02-26T06:58:00.163Z,1.80
2023-02-26T07:00:45.965Z,1.70
2023-02-26T07:03:34.379Z,1.70
2023-02-26T07:06:38.076Z,1.70
2023-02-26T07:09:25.328Z,1.70
2023-02-26T07:12:13.657Z,1.70
2023-02-26T07:14:59.914Z,1.70
2023-02-26T07:17:45.664Z,1.70
2023-02-26T07:20:31.232Z,1.80
2023-02-26T07:23:17.637Z,1.80
2023-02-26T07:26:06.295Z,1.90
2023-02-26T07:28:51.862Z,1.90
2023-02-26T07:31:37.393Z,1.90
2023-02-26T07:34:23.152Z,2.00
2023-02-26T07:37:08.555Z,2.00
2023-02-26T07:39:53.817Z,2.10
2023-02-26T07:42:39.745Z,2.10
2023-02-26T07:45:25.220Z,2.10
2023-02-26T07:48:10.642Z,2.20
2023-02-26T07:50:58.709Z,2.20
2023-02-26T07:53:44.472Z,2.20
2023-02-26T07:56:29.890Z,2.20
2023-02-26T07:59:15.248Z,2.30
2023-02-26T08:02:00.791Z,2.40
2023-02-26T08:04:46.202Z,2.40
2023-02-26T08:07:33.750Z,2.40
2023-02-26T08:10:22.919Z,2.50
2023-02-26T08:13:09.661Z,2.50
2023-02-26T08:15:55.059Z,2.50
2023-02-26T08:18:42.036Z,2.60
2023-02-26T08:21:27.633Z,2.60
2023-02-26T08:24:13.544Z,2.70
2023-02-26T08:26:59.162Z,2.70
2023-02-26T08:29:46.319Z,2.80
2023-02-26T08:32:31.795Z,2.80
2023-02-26T08:35:20.220Z,2.90
2023-02-26T08:38:05.796Z,2.90
2023-02-26T08:40:52.662Z,3.00
2023-02-26T08:43:38.273Z,3.00
2023-02-26T08:46:26.684Z,3.10
2023-02-26T08:49:12.648Z,3.20
2023-02-26T08:51:58.306Z,3.40
2023-02-26T08:54:43.709Z,3.50
2023-02-26T08:57:29.205Z,3.60
2023-02-26T09:00:18.798Z,3.70
2023-02-26T09:03:04.301Z,3.80
2023-02-26T09:05:53.078Z,3.90
2023-02-26T09:08:40.243Z,3.90
2023-02-26T09:11:26.110Z,4.00
2023-02-26T09:14:14.854Z,4.10
2023-02-26T09:17:00.596Z,4.10
2023-02-26T09:19:49.048Z,4.20
2023-02-26T09:22:35.261Z,4.40
2023-02-26T09:25:20.640Z,4.30
2023-02-26T09:28:06.226Z,4.70
2023-02-26T09:30:53.827Z,4.30
2023-02-26T09:33:39.110Z,4.40
2023-02-26T09:36:25.764Z,4.50
2023-02-26T09:39:14.553Z,4.60
2023-02-26T09:42:35.157Z,4.60
2023-02-26T09:45:32.087Z,4.70
2023-02-26T09:48:20.503Z,4.60
2023-02-26T09:51:11.850Z,5.40
2023-02-26T09:54:00.935Z,4.70
2023-02-26T09:56:48.034Z,4.80
2023-02-26T09:59:37.248Z,4.80
2023-02-26T10:02:34.412Z,4.90
2023-02-26T10:05:31.021Z,4.90
2023-02-26T10:08:18.556Z,5.00
2023-02-26T10:11:20.045Z,5.00
2023-02-26T10:14:15.200Z,5.10
2023-02-26T10:17:07.570Z,5.20
2023-02-26T10:19:57.881Z,5.30
2023-02-26T10:22:51.491Z,5.30
2023-02-26T10:25:44.468Z,5.40
2023-02-26T10:29:00.943Z,5.50
2023-02-26T10:31:59.959Z,5.50
2023-02-26T10:35:15.431Z,5.60
2023-02-26T10:38:09.899Z,5.80
2023-02-26T10:41:16.229Z,5.80
2023-02-26T10:44:18.142Z,5.90
2023-02-26T10:47:19.899Z,6.00
2023-02-26T10:50:10.967Z,6.10
2023-02-26T10:52:57.808Z,6.20
2023-02-26T10:56:24.361Z,6.30
2023-02-26T10:59:09.612Z,6.30
2023-02-26T11:01:56.333Z,6.50
2023-02-26T11:04:41.931Z,6.50
2023-02-26T11:07:32.375Z,6.70
2023-02-26T11:10:22.113Z,6.90
2023-02-26T11:13:07.707Z,7.00
2023-02-26T11:15:56.730Z,7.20
2023-02-26T11:18:48.803Z,7.40
2023-02-26T11:21:39.565Z,7.60
2023-02-26T11:24:36.525Z,7.80
2023-02-26T11:27:30.751Z,8.10
2023-02-26T11:30:19.239Z,8.40
2023-02-26T11:33:15.625Z,8.80
2023-02-26T11:36:05.990Z,9.10
2023-02-26T11:39:05.433Z,9.70
2023-02-26T11:41:55.822Z,10.50
2023-02-26T11:44:45.856Z,11.30
2023-02-26T11:47:33.629Z,12.10
2023-02-26T11:50:23.143Z,12.60
2023-02-26T11:53:18.459Z,13.10
2023-02-26T11:56:22.520Z,13.50
2023-02-26T11:59:21.709Z,13.90
2023-02-26T12:02:15.246Z,14.50
2023-02-26T12:05:07.124Z,15.00
2023-02-26T12:07:52.778Z,15.60
2023-02-26T12:10:49.149Z,16.10
2023-02-26T12:13:39.426Z,16.80
2023-02-26T12:16:42.632Z,17.30
2023-02-26T12:19:34.152Z,17.70
2023-02-26T12:22:27.597Z,17.40
2023-02-26T12:25:21.817Z,17.50
2023-02-26T12:28:32.493Z,17.70
2023-02-26T12:31:45.304Z,18.00
2023-02-26T12:34:45.907Z,18.20
2023-02-26T12:38:01.413Z,18.60
2023-02-26T12:41:16.681Z,18.60
2023-02-26T12:44:27.072Z,19.40
2023-02-26T12:47:40.722Z,19.60
2023-02-26T12:50:53.850Z,20.00
2023-02-26T12:54:36.088Z,21.00
2023-02-26T12:57:49.033Z,22.10
2023-02-26T13:00:54.203Z,22.80
2023-02-26T13:04:01.336Z,23.20
2023-02-26T13:07:14.578Z,24.10
2023-02-26T13:10:22.846Z,24.50
2023-02-26T13:13:22.074Z,24.40
2023-02-26T13:16:13.537Z,23.50
2023-02-26T13:19:13.386Z,21.70
2023-02-26T13:22:14.824Z,20.60
2023-02-26T13:28:50.052Z,22.10
2023-02-26T13:31:49.269Z,22.80
2023-02-26T13:35:01.491Z,23.50
2023-02-26T13:37:50.976Z,23.90
2023-02-26T13:40:47.346Z,23.70
2023-02-26T13:44:09.168Z,23.40
2023-02-26T13:47:06.723Z,23.80
2023-02-26T13:50:26.456Z,24.50
2023-02-26T13:53:24.401Z,24.50
2023-02-26T13:56:32.216Z,23.70
2023-02-26T13:59:30.402Z,23.60
2023-02-26T14:02:51.234Z,24.10
2023-02-26T14:05:46.935Z,24.40
2023-02-26T14:08:43.391Z,24.90
2023-02-26T14:11:56.440Z,25.40
2023-02-26T14:14:44.490Z,24.90
2023-02-26T14:17:38.033Z,24.80
2023-02-26T14:20:27.593Z,24.90
2023-02-26T14:23:40.132Z,24.20
2023-02-26T14:26:27.978Z,24.40
2023-02-26T14:29:22.048Z,24.50
2023-02-26T14:32:10.763Z,24.60
2023-02-26T14:35:00.892Z,25.00
2023-02-26T14:37:58.126Z,25.00
2023-02-26T14:40:48.814Z,24.90
2023-02-26T14:43:51.577Z,25.10
2023-02-26T14:46:36.841Z,25.50
2023-02-26T14:49:35.419Z,25.80
2023-02-26T14:52:39.026Z,26.10
2023-02-26T14:55:52.228Z,26.50
2023-02-26T14:59:00.537Z,26.70
2023-02-26T15:02:07.492Z,26.40
2023-02-26T15:05:22.110Z,26.60
2023-02-26T15:08:19.807Z,26.70
2023-02-26T15:11:44.336Z,26.60
2023-02-26T15:14:57.352Z,26.50
2023-02-26T15:18:32.415Z,27.00
2023-02-26T15:21:48.730Z,27.00
2023-02-26T15:24:37.464Z,26.60
2023-02-26T15:27:23.289Z,26.80
2023-02-26T15:30:14.963Z,27.20
2023-02-26T15:33:06.262Z,27.10
2023-02-26T15:35:53.757Z,26.50
2023-02-26T15:38:47.145Z,26.00
2023-02-26T15:41:34.171Z,25.70
2023-02-26T15:44:27.314Z,25.50
2023-02-26T15:47:15.256Z,25.30
2023-02-26T15:50:01.761Z,25.40
2023-02-26T15:52:51.295Z,25.60
2023-02-26T15:55:43.197Z,25.60
2023-02-26T15:58:50.797Z,25.60
2023-02-26T16:01:39.591Z,25.20
2023-02-26T16:04:45.486Z,24.60
2023-02-26T16:07:31.716Z,24.10
2023-02-26T16:10:39.335Z,23.40
2023-02-26T16:13:34.491Z,22.60
2023-02-26T16:16:27.342Z,22.00
2023-02-26T16:19:20.829Z,21.60
2023-02-26T16:22:24.876Z,21.10
2023-02-26T16:25:34.198Z,20.60
2023-02-26T16:28:31.952Z,19.90
2023-02-26T16:31:20.917Z,19.60
2023-02-26T16:34:44.671Z,18.90
2023-02-26T16:37:31.901Z,18.30
2023-02-26T16:40:20.403Z,17.80
2023-02-26T16:43:35.720Z,17.40
2023-02-26T16:46:48.333Z,16.80
2023-02-26T16:49:37.548Z,16.20
2023-02-26T16:52:26.340Z,15.20
2023-02-26T16:55:18.329Z,13.70
2023-02-26T16:58:07.869Z,12.40
2023-02-26T17:01:03.553Z,11.40
2023-02-26T17:03:56.549Z,10.50
2023-02-26T17:06:52.126Z,9.80
2023-02-26T17:09:42.209Z,9.30
2023-02-26T17:12:49.030Z,8.80
2023-02-26T17:15:39.384Z,8.40
2023-02-26T17:18:25.201Z,8.00
2023-02-26T17:21:10.710Z,7.70
2023-02-26T17:23:56.342Z,7.40
2023-02-26T17:26:41.961Z,7.20
2023-02-26T17:29:37.721Z,7.00
2023-02-26T17:32:27.086Z,6.80
2023-02-26T17:35:16.141Z,6.60
2023-02-26T17:38:01.523Z,6.40
2023-02-26T17:40:54.391Z,6.30
2023-02-26T17:43:43.091Z,6.20
2023-02-26T17:46:28.673Z,6.00
2023-02-26T17:49:14.390Z,5.90
2023-02-26T17:51:59.824Z,5.80
2023-02-26T17:54:45.349Z,5.70
2023-02-26T17:57:30.885Z,5.60
2023-02-26T18:00:17.708Z,5.60
2023-02-26T18:03:03.743Z,5.40
2023-02-26T18:05:50.706Z,5.40
2023-02-26T18:08:35.968Z,5.30
2023-02-26T18:11:23.917Z,5.30
2023-02-26T18:14:12.219Z,5.20
2023-02-26T18:16:57.518Z,5.20
2023-02-26T18:19:46.363Z,5.10
2023-02-26T18:22:31.969Z,5.10
2023-02-26T18:25:17.947Z,5.00
2023-02-26T18:28:07.547Z,4.90
2023-02-26T18:30:54.484Z,4.90
2023-02-26T18:33:41.209Z,4.80
2023-02-26T18:36:34.713Z,4.80
2023-02-26T18:39:20.367Z,4.70
2023-02-26T18:42:05.940Z,4.70
2023-02-26T18:44:54.939Z,4.70
2023-02-26T18:47:40.812Z,4.60
2023-02-26T18:50:26.264Z,4.60
2023-02-26T18:53:14.341Z,4.50
2023-02-26T18:56:02.588Z,4.50
2023-02-26T18:58:51.019Z,4.50
2023-02-26T19:01:36.894Z,4.40
2023-02-26T19:04:22.287Z,4.40
2023-02-26T19:07:08.929Z,4.30
2023-02-26T19:09:54.388Z,4.30
2023-02-26T19:12:40.232Z,4.30
2023-02-26T19:15:25.785Z,4.30
2023-02-26T19:18:12.853Z,4.20
2023-02-26T19:20:58.476Z,4.20
2023-02-26T19:23:48.274Z,4.10
2023-02-26T19:26:37.395Z,4.10
2023-02-26T19:29:23.033Z,4.10
2023-02-26T19:32:09.126Z,4.10
2023-02-26T19:34:54.638Z,4.10
2023-02-26T19:37:40.326Z,4.20
2023-02-26T19:40:32.060Z,4.30
2023-02-26T19:43:17.723Z,4.30
2023-02-26T19:46:03.663Z,4.40
2023-02-26T19:48:50.136Z,4.50
2023-02-26T19:51:35.967Z,4.60
2023-02-26T19:54:21.554Z,4.60
2023-02-26T19:57:09.392Z,4.70
2023-02-26T19:59:57.577Z,4.60
2023-02-26T20:02:46.228Z,4.70
2023-02-26T20:05:35.648Z,4.60
2023-02-26T20:08:22.835Z,4.50
2023-02-26T20:11:18.196Z,4.50
2023-02-26T20:14:06.615Z,4.40
2023-02-26T20:16:54.976Z,4.30
2023-02-26T20:19:41.669Z,4.30
2023-02-26T20:22:27.801Z,4.30
2023-02-26T20:25:15.558Z,4.30
2023-02-26T20:28:01.110Z,4.30
2023-02-26T20:30:47.917Z,4.30
2023-02-26T20:33:36.323Z,4.30
2023-02-26T20:36:24.351Z,4.40
2023-02-26T20:39:09.878Z,4.40
2023-02-26T20:41:55.603Z,4.50
2023-02-26T20:44:41.053Z,4.50
2023-02-26T20:47:27.092Z,4.50
2023-02-26T20:50:13.025Z,4.50
2023-02-26T20:52:58.524Z,4.50
2023-02-26T20:55:44.101Z,4.50
2023-02-26T20:58:31.589Z,4.40
2023-02-26T21:01:17.033Z,4.30
2023-02-26T21:04:08.351Z,4.30
2023-02-26T21:06:55.337Z,4.30
2023-02-26T21:09:41.316Z,4.20
2023-02-26T21:12:31.189Z,4.20
2023-02-26T21:15:16.464Z,4.20
2023-02-26T21:18:02.216Z,4.10
2023-02-26T21:20:49.917Z,4.20
2023-02-26T21:23:35.347Z,4.20
2023-02-26T21:26:21.499Z,4.20
2023-02-26T21:29:10.394Z,4.30
2023-02-26T21:31:59.647Z,4.20
2023-02-26T21:34:50.556Z,4.10
2023-02-26T21:37:40.080Z,4.20
2023-02-26T21:40:25.549Z,4.20
2023-02-26T21:43:11.184Z,4.20
2023-02-26T21:45:59.746Z,4.20
2023-02-26T21:48:46.548Z,4.10
2023-02-26T21:51:34.732Z,4.10
2023-02-26T21:54:20.189Z,4.00
2023-02-26T21:57:08.813Z,4.00
2023-02-26T22:00:00.775Z,3.90
2023-02-26T22:02:57.270Z,3.90
2023-02-26T22:05:43.285Z,3.80
2023-02-26T22:08:28.477Z,3.80
2023-02-26T22:11:15.284Z,3.80
2023-02-26T22:14:00.616Z,3.80
2023-02-26T22:16:46.438Z,3.80
2023-02-26T22:19:31.689Z,3.80
2023-02-26T22:22:17.227Z,3.80
2023-02-26T22:25:04.023Z,3.80
2023-02-26T22:27:50.570Z,3.90
2023-02-26T22:30:36.008Z,3.90
2023-02-26T22:33:24.878Z,3.90
2023-02-26T22:36:10.400Z,3.90
2023-02-26T22:38:56.506Z,3.90
2023-02-26T22:41:42.037Z,4.00
2023-02-26T22:44:30.329Z,4.00
2023-02-26T22:47:15.909Z,4.00
2023-02-26T22:50:01.540Z,4.00
2023-02-26T22:52:47.713Z,4.10
2023-02-26T22:55:34.225Z,4.10
2023-02-26T22:58:20.028Z,4.20
2023-02-26T23:01:06.956Z,4.20
2023-02-26T23:03:52.565Z,4.30
2023-02-26T23:06:38.196Z,4.30
2023-02-26T23:09:24.081Z,4.30
2023-02-26T23:12:10.069Z,4.50
2023-02-26T23:14:55.498Z,4.40
2023-02-26T23:17:42.777Z,4.40
2023-02-26T23:20:28.077Z,4.40
2023-02-26T23:23:16.420Z,4.40
2023-02-26T23:26:01.954Z,4.50
2023-02-26T23:28:47.357Z,4.50
2023-02-26T23:31:33.418Z,4.40
2023-02-26T23:34:18.941Z,4.50
2023-02-26T23:37:07.102Z,4.50
2023-02-26T23:39:53.033Z,4.50
2023-02-26T23:42:38.456Z,4.50
2023-02-26T23:45:24.349Z,4.60
2023-02-26T23:48:09.978Z,4.50
2023-02-26T23:50:55.960Z,4.60
2023-02-26T23:53:41.537Z,4.50
2023-02-26T23:56:29.590Z,4.60
2023-02-26T23:59:18.576Z,4.60
